Time;durP1;ratioP1;P1;durP2;ratioP2;P2;SDS_P1;SDS_P2;PMS_P1;PMS_P2;Temp;Humidity;BMP_temperature;BMP_pressure;BME280_temperature;BME280_humidity;BME280_pressure;Samples;Min_cycle;Max_cycle;Signal;HPM_P1;HPM_P2
2022/12/23 00:01:22;;;;;;;14.93;13.68;;;;;;;5.35;100.00;98859.03;10406000;28;20045;-76
2022/12/23 00:06:25;;;;;;;13.02;12.02;;;;;;;5.52;100.00;98856.78;10423333;28;20041;-75
2022/12/23 00:11:27;;;;;;;14.05;12.98;;;;;;;5.39;100.00;98850.22;10423056;28;20076;-76
2022/12/23 00:16:29;;;;;;;13.32;12.20;;;;;;;5.55;100.00;98846.28;10423064;28;20057;-76
2022/12/23 00:21:31;;;;;;;13.35;12.25;;;;;;;5.35;100.00;98826.91;10404402;28;20051;-76
2022/12/23 00:26:33;;;;;;;15.07;13.90;;;;;;;5.24;100.00;98816.81;10404489;28;20224;-75
2022/12/23 00:31:35;;;;;;;15.32;14.13;;;;;;;5.37;100.00;98809.50;10421866;28;20045;-76
2022/12/23 00:36:37;;;;;;;19.35;17.85;;;;;;;5.41;100.00;98800.69;10421574;28;20430;-75
2022/12/23 00:46:59;;;;;;;12.60;11.60;;;;;;;5.27;100.00;98788.94;10421318;28;20053;-75
2022/12/23 00:52:01;;;;;;;16.52;15.20;;;;;;;5.22;100.00;98777.81;10420975;28;20053;-75
2022/12/23 00:57:03;;;;;;;15.23;14.02;;;;;;;5.39;100.00;98769.44;10403529;28;20045;-75
2022/12/23 01:07:25;;;;;;;14.15;13.10;;;;;;;5.14;100.00;98781.53;10420823;28;20060;-75
2022/12/23 01:12:27;;;;;;;14.93;13.73;;;;;;;5.15;100.00;98778.03;10421075;28;20041;-76
2022/12/23 01:17:29;;;;;;;12.65;11.68;;;;;;;5.15;100.00;98770.22;10420458;28;20054;-76
2022/12/23 01:22:30;;;;;;;12.82;11.82;;;;;;;5.24;100.00;98764.72;10420174;28;20084;-76
2022/12/23 01:27:32;;;;;;;13.80;12.70;;;;;;;5.31;100.00;98761.88;10420341;28;20092;-75
2022/12/23 01:32:34;;;;;;;12.63;11.63;;;;;;;5.41;100.00;98759.84;10420212;28;20392;-76
2022/12/23 01:37:36;;;;;;;13.07;12.07;;;;;;;5.43;100.00;98745.00;10419429;28;20045;-76
2022/12/23 01:42:43;;;;;;;11.95;11.05;;;;;;;5.34;100.00;98741.84;10419168;28;20549;-75
2022/12/23 01:48:00;;;;;;;11.73;10.82;;;;;;;5.16;100.00;98746.72;10401747;28;20072;-75
2022/12/23 01:53:07;;;;;;;13.27;12.15;;;;;;;5.16;100.00;98746.72;10419510;28;20069;-75
2022/12/23 01:58:14;;;;;;;11.55;10.65;;;;;;;5.09;100.00;98741.72;10419662;28;20044;-76
2022/12/23 02:19:51;;;;;;;11.65;10.65;;;;;;;5.34;100.00;98734.88;10399337;28;20056;-75
2022/12/23 02:25:21;;;;;;;10.07;9.27;;;;;;;5.36;100.00;98742.63;10417426;28;20095;-76
2022/12/23 02:31:08;;;;;;;10.18;9.27;;;;;;;5.38;100.00;98741.69;10419202;28;20042;-75
2022/12/23 02:36:48;;;;;;;8.43;7.60;;;;;;;5.52;100.00;98738.66;10418898;28;20121;-75
2022/12/23 02:42:01;;;;;;;5.07;3.00;;;;;;;5.97;100.00;98728.47;10402427;28;20041;-75
2022/12/23 02:47:25;;;;;;;3.15;1.13;;;;;;;6.45;100.00;98719.84;10419399;28;20566;-75
2022/12/23 02:52:31;;;;;;;5.38;1.40;;;;;;;7.24;100.00;98720.38;10420016;28;20041;-75
2022/12/23 02:57:40;;;;;;;4.97;0.87;;;;;;;7.52;100.00;98728.81;10419944;28;20380;-74
2022/12/23 03:02:42;;;;;;;3.55;1.10;;;;;;;7.82;100.00;98720.66;10419903;28;20037;-75
2022/12/23 03:07:45;;;;;;;3.15;0.70;;;;;;;8.08;100.00;98709.94;10402061;28;20099;-74
2022/12/23 03:12:52;;;;;;;2.90;0.80;;;;;;;8.04;100.00;98705.75;10419291;28;20404;-74
2022/12/23 03:18:15;;;;;;;1.35;0.47;;;;;;;8.14;100.00;98697.50;10401148;28;20060;-75
2022/12/23 03:23:31;;;;;;;2.78;1.10;;;;;;;8.21;100.00;98704.19;10418587;28;20041;-75
2022/12/23 03:28:56;;;;;;;2.20;0.98;;;;;;;8.25;100.00;98703.13;10419819;28;20045;-74
2022/12/23 03:34:07;;;;;;;1.55;0.60;;;;;;;8.45;100.00;98697.88;10419914;28;20053;-74
2022/12/23 03:39:13;;;;;;;1.80;0.40;;;;;;;8.45;100.00;98697.03;10418063;28;20175;-74
2022/12/23 03:44:21;;;;;;;1.27;0.53;;;;;;;8.27;100.00;98696.03;10417934;28;20565;-74
2022/12/23 03:49:29;;;;;;;1.50;0.40;;;;;;;8.30;100.00;98701.16;10417486;28;20049;-75
2022/12/23 03:54:41;;;;;;;0.73;0.30;;;;;;;8.14;100.00;98700.97;10417423;28;20048;-75
2022/12/23 03:59:45;;;;;;;0.82;0.40;;;;;;;8.54;100.00;98709.72;10417924;28;20045;-75
2022/12/23 04:05:01;;;;;;;2.35;0.40;;;;;;;8.44;100.00;98711.06;10399208;28;20077;-75
2022/12/23 04:10:03;;;;;;;0.43;0.25;;;;;;;8.48;100.00;98710.84;10398765;28;20081;-75
2022/12/23 04:15:06;;;;;;;2.00;0.32;;;;;;;8.50;100.00;98713.38;10417486;28;20479;-75
2022/12/23 04:20:13;;;;;;;1.17;0.10;;;;;;;8.69;100.00;98695.94;10416871;28;20045;-75
2022/12/23 04:25:17;;;;;;;1.15;0.20;;;;;;;8.80;100.00;98706.78;10417374;28;20042;-75
2022/12/23 04:30:18;;;;;;;1.58;0.35;;;;;;;8.89;100.00;98709.91;10415730;28;20046;-75
2022/12/23 04:35:21;;;;;;;0.93;0.20;;;;;;;8.85;100.00;98709.19;10415293;28;20427;-75
2022/12/23 04:40:23;;;;;;;0.82;0.32;;;;;;;8.81;100.00;98711.13;10415187;28;20057;-75
2022/12/23 04:45:24;;;;;;;0.82;0.25;;;;;;;8.91;100.00;98708.91;10422160;28;20499;-75
2022/12/23 04:50:26;;;;;;;0.77;0.40;;;;;;;8.81;100.00;98703.25;10423519;28;20053;-75
2022/12/23 04:55:28;;;;;;;0.45;0.10;;;;;;;8.88;100.00;98705.59;10421627;28;20048;-75
2022/12/23 05:00:29;;;;;;;0.73;0.38;;;;;;;8.96;100.00;98712.16;10421541;28;20519;-75
2022/12/23 05:05:43;;;;;;;0.85;0.20;;;;;;;9.02;100.00;98705.78;10423081;28;20072;-73
2022/12/23 05:10:45;;;;;;;0.10;0.10;;;;;;;9.08;98.93;98706.38;10421788;28;20455;-73
2022/12/23 05:15:51;;;;;;;0.43;0.15;;;;;;;8.92;100.00;98713.22;10421649;28;20407;-74
2022/12/23 05:20:53;;;;;;;0.82;0.20;;;;;;;8.97;100.00;98708.63;10422453;28;20045;-73
2022/12/23 05:25:55;;;;;;;0.80;0.30;;;;;;;8.83;100.00;98711.88;10423520;28;20037;-73
2022/12/23 05:31:02;;;;;;;0.28;0.20;;;;;;;8.93;100.00;98711.47;10422925;28;20049;-73
2022/12/23 05:36:04;;;;;;;1.30;0.30;;;;;;;8.89;100.00;98710.75;10423641;28;20045;-72
2022/12/23 05:41:06;;;;;;;0.63;0.30;;;;;;;9.02;99.25;98721.50;10420839;28;20179;-73
2022/12/23 05:46:08;;;;;;;0.20;0.20;;;;;;;9.14;97.71;98717.47;10421219;28;20063;-72
2022/12/23 05:51:10;;;;;;;0.45;0.40;;;;;;;9.07;97.72;98717.78;10421304;28;20136;-72
2022/12/23 05:56:11;;;;;;;1.30;0.30;;;;;;;9.00;98.30;98736.47;10421229;28;20045;-73
2022/12/23 06:01:13;;;;;;;0.20;0.20;;;;;;;8.95;98.78;98728.81;10421735;28;20041;-73
2022/12/23 06:06:15;;;;;;;0.60;0.30;;;;;;;8.86;99.69;98731.03;10404385;28;20494;-73
2022/12/23 06:11:17;;;;;;;0.30;0.20;;;;;;;8.95;98.43;98738.47;10421459;28;20060;-73
2022/12/23 06:16:18;;;;;;;0.70;0.30;;;;;;;9.03;97.82;98738.94;10422264;28;20060;-73
2022/12/23 06:21:21;;;;;;;0.75;0.35;;;;;;;8.91;98.46;98750.84;10421437;28;20053;-73
2022/12/23 06:26:23;;;;;;;1.02;0.30;;;;;;;9.13;96.35;98747.25;10407316;28;20132;-73
2022/12/23 06:31:25;;;;;;;1.73;0.30;;;;;;;9.09;96.88;98751.78;10405396;28;20041;-73
2022/12/23 06:36:26;;;;;;;0.45;0.20;;;;;;;9.22;95.56;98765.16;10422488;28;20041;-73
2022/12/23 06:41:29;;;;;;;0.98;0.25;;;;;;;9.20;95.89;98769.63;10423059;28;20061;-73
2022/12/23 06:46:31;;;;;;;0.60;0.22;;;;;;;9.16;99.79;98770.69;10424467;28;20077;-73
2022/12/23 06:51:33;;;;;;;1.13;0.50;;;;;;;9.18;100.00;98772.31;10405243;28;20050;-73
2022/12/23 06:56:35;;;;;;;0.90;0.38;;;;;;;8.86;100.00;98771.19;10403951;28;20065;-73
2022/12/23 07:01:37;;;;;;;0.90;0.38;;;;;;;8.75;100.00;98770.78;10418773;28;20061;-73
2022/12/23 07:06:39;;;;;;;1.48;0.30;;;;;;;8.81;100.00;98775.78;10400559;28;20052;-73
2022/12/23 07:11:41;;;;;;;1.55;0.50;;;;;;;8.65;100.00;98772.13;10418812;28;20045;-73
2022/12/23 07:16:42;;;;;;;1.30;0.40;;;;;;;8.65;100.00;98774.75;10418684;28;20060;-73
2022/12/23 07:21:44;;;;;;;0.93;0.40;;;;;;;8.67;100.00;98780.75;10418414;28;20038;-74
2022/12/23 07:26:46;;;;;;;0.88;0.40;;;;;;;8.51;100.00;98780.59;10418886;28;20042;-74
2022/12/23 07:31:48;;;;;;;1.05;0.55;;;;;;;8.66;100.00;98794.78;10417445;28;20105;-73
2022/12/23 07:36:50;;;;;;;3.50;0.82;;;;;;;8.58;100.00;98798.56;10417215;28;20516;-73
2022/12/23 07:41:51;;;;;;;0.73;0.40;;;;;;;8.67;100.00;98809.56;10416651;28;20045;-74
2022/12/23 07:47:14;;;;;;;1.23;0.60;;;;;;;8.61;100.00;98808.06;10417743;28;20494;-72
2022/12/23 07:52:17;;;;;;;1.17;0.50;;;;;;;8.80;100.00;98798.47;10420971;28;20101;-71
2022/12/23 07:57:19;;;;;;;0.68;0.30;;;;;;;8.92;100.00;98807.56;10407449;28;20446;-71
2022/12/23 08:02:23;;;;;;;1.13;0.35;;;;;;;8.76;100.00;98811.78;10425335;28;20060;-71
2022/12/23 08:07:26;;;;;;;1.30;0.38;;;;;;;8.93;100.00;98813.66;10406335;28;20095;-71
2022/12/23 08:12:28;;;;;;;2.00;0.43;;;;;;;8.84;100.00;98810.53;10422155;28;20042;-72
2022/12/23 08:17:30;;;;;;;1.92;0.50;;;;;;;8.96;100.00;98813.53;10422564;28;20052;-71
2022/12/23 08:22:32;;;;;;;1.10;0.60;;;;;;;9.11;100.00;98807.59;10427401;28;20065;-71
2022/12/23 08:27:34;;;;;;;0.75;0.30;;;;;;;9.21;100.00;98808.03;10427282;28;20114;-72
2022/12/23 08:32:37;;;;;;;2.08;0.52;;;;;;;9.15;100.00;98814.41;10426680;28;20055;-72
2022/12/23 08:37:38;;;;;;;0.47;0.45;;;;;;;9.13;100.00;98811.00;10409551;28;20132;-73
2022/12/23 08:42:40;;;;;;;0.68;0.30;;;;;;;9.12;100.00;98825.06;10446791;22;20046;-83
2022/12/23 08:47:45;;;;;;;2.38;0.60;;;;;;;9.22;100.00;98835.97;10444876;28;20124;-84
2022/12/23 08:52:47;;;;;;;0.63;0.43;;;;;;;9.36;100.00;98836.19;10425362;28;20059;-83
2022/12/23 08:57:48;;;;;;;0.52;0.40;;;;;;;9.41;100.00;98844.69;10442439;28;20042;-84
2022/12/23 09:02:50;;;;;;;0.52;0.40;;;;;;;9.53;100.00;98838.03;10425314;28;20064;-82
2022/12/23 09:07:56;;;;;;;1.33;0.40;;;;;;;9.47;100.00;98843.53;10425082;28;20074;-83
2022/12/23 09:12:58;;;;;;;1.17;0.50;;;;;;;9.47;100.00;98848.78;10426746;28;20132;-81
2022/12/23 09:17:59;;;;;;;0.60;0.60;;;;;;;9.52;100.00;98847.69;10413652;28;20049;-83
2022/12/23 09:23:01;;;;;;;0.57;0.35;;;;;;;9.46;100.00;98857.59;10441097;28;20123;-83
2022/12/23 09:28:05;;;;;;;3.08;0.80;;;;;;;9.53;100.00;98845.91;10423197;28;20049;-83
2022/12/23 09:33:07;;;;;;;0.85;0.57;;;;;;;9.79;100.00;98849.94;10445414;28;20132;-83
2022/12/23 09:38:09;;;;;;;0.70;0.40;;;;;;;9.65;100.00;98858.47;10413538;28;20049;-83
2022/12/23 09:43:37;;;;;;;1.25;0.60;;;;;;;9.71;100.00;98855.53;10436895;28;20079;-82
2022/12/23 09:48:48;;;;;;;1.75;0.82;;;;;;;9.66;100.00;98852.28;10455261;28;20052;-84
2022/12/23 09:54:25;;;;;;;0.85;0.40;;;;;;;9.92;100.00;98860.69;10427555;28;20041;-83
2022/12/23 10:00:01;;;;;;;1.13;0.50;;;;;;;9.93;100.00;98865.03;10446503;28;20050;-83
2022/12/23 10:05:41;;;;;;;0.70;0.47;;;;;;;10.08;98.75;98864.25;10428624;28;20464;-84
2022/12/23 10:10:45;;;;;;;0.50;0.50;;;;;;;10.15;98.31;98864.84;10426972;28;20053;-80
2022/12/23 10:15:50;;;;;;;0.57;0.50;;;;;;;10.15;98.20;98863.06;10440661;28;20050;-83
2022/12/23 10:21:06;;;;;;;0.65;0.65;;;;;;;10.25;96.22;98881.88;10422902;28;20061;-82
2022/12/23 10:26:24;;;;;;;1.30;0.55;;;;;;;10.25;96.41;98884.50;10439330;28;20038;-81
2022/12/23 10:31:39;;;;;;;1.30;0.93;;;;;;;10.24;96.64;98880.13;10438734;28;20093;-83
2022/12/23 10:36:51;;;;;;;0.85;0.52;;;;;;;10.30;96.03;98872.81;10441964;28;20041;-83
2022/12/23 10:42:17;;;;;;;0.50;0.50;;;;;;;10.23;95.49;98881.06;10426860;28;20045;-81
2022/12/23 10:47:37;;;;;;;0.80;0.60;;;;;;;10.23;95.58;98863.53;10426357;28;20079;-83
2022/12/23 10:58:53;;;;;;;2.35;0.90;;;;;;;10.45;93.06;98857.25;10315257;28;20070;-82
2022/12/23 11:03:55;;;;;;;1.20;0.70;;;;;;;10.38;93.62;98846.19;10301059;28;20070;-86
2022/12/23 11:09:01;;;;;;;1.02;0.73;;;;;;;10.44;93.07;98859.00;10302234;28;20058;-83
2022/12/23 11:14:03;;;;;;;0.70;0.70;;;;;;;10.21;94.80;98864.53;10314025;28;20061;-82
2022/12/23 11:19:14;;;;;;;1.35;0.70;;;;;;;10.29;93.47;98867.66;10316466;28;20085;-82
2022/12/23 11:24:18;;;;;;;0.65;0.65;;;;;;;10.30;93.09;98862.31;10323135;28;20051;-84
2022/12/23 11:29:24;;;;;;;0.60;0.60;;;;;;;10.41;92.59;98869.69;10321402;28;20082;-84
2022/12/23 11:34:29;;;;;;;1.13;0.80;;;;;;;10.60;90.43;98873.09;10303545;28;20050;-84
2022/12/23 11:39:35;;;;;;;0.93;0.60;;;;;;;10.72;90.80;98870.78;10303294;28;20605;-83
2022/12/23 11:44:45;;;;;;;1.02;0.70;;;;;;;10.67;92.71;98878.03;10324821;28;20066;-82
2022/12/23 11:49:53;;;;;;;0.80;0.80;;;;;;;10.93;88.79;98887.22;10428322;28;20041;-84
2022/12/23 11:54:58;;;;;;;0.98;0.60;;;;;;;10.72;90.46;98887.41;10452753;28;20046;-84
2022/12/23 12:00:03;;;;;;;1.00;0.70;;;;;;;10.78;88.45;98899.38;10451137;28;20113;-83
2022/12/23 12:05:32;;;;;;;0.82;0.60;;;;;;;10.74;90.22;98895.19;10454220;28;20025;-83
2022/12/23 12:10:36;;;;;;;1.50;0.70;;;;;;;10.78;89.46;98897.59;10455117;28;20038;-83
2022/12/23 12:16:00;;;;;;;1.00;0.80;;;;;;;10.81;89.00;98894.81;10454534;28;20045;-82
2022/12/23 12:21:12;;;;;;;0.60;0.60;;;;;;;10.77;88.75;98888.00;10450241;28;20038;-81
2022/12/23 12:26:24;;;;;;;1.83;1.30;;;;;;;10.76;90.05;98873.19;10451857;28;20049;-82
2022/12/23 12:31:36;;;;;;;1.17;0.80;;;;;;;10.76;88.27;98877.59;10469927;28;20046;-82
2022/12/23 12:37:13;;;;;;;0.82;0.80;;;;;;;10.79;88.90;98873.00;10471805;28;20025;-81
2022/12/23 12:42:43;;;;;;;1.30;1.00;;;;;;;10.79;88.25;98882.66;10445421;28;20095;-83
2022/12/23 12:48:40;;;;;;;0.82;0.80;;;;;;;10.61;89.59;98890.53;10466337;28;20042;-82
2022/12/23 12:53:51;;;;;;;0.60;0.60;;;;;;;10.68;88.18;98877.97;10392903;28;20066;-83
2022/12/23 12:58:57;;;;;;;0.60;0.50;;;;;;;10.71;87.25;98880.41;10462835;28;20045;-83
2022/12/23 13:04:43;;;;;;;2.28;1.17;;;;;;;10.57;88.54;98883.75;10457480;28;20018;-82
2022/12/23 13:10:05;;;;;;;0.70;0.70;;;;;;;10.48;89.84;98868.44;10382275;28;20026;-83
2022/12/23 13:15:31;;;;;;;1.27;0.93;;;;;;;10.64;88.25;98876.41;10381819;28;20061;-83
2022/12/23 13:20:44;;;;;;;1.17;0.80;;;;;;;10.44;90.45;98876.56;10366355;28;20117;-83
2022/12/23 13:25:59;;;;;;;1.45;0.90;;;;;;;10.37;90.92;98864.66;10383282;28;20081;-84
2022/12/23 13:31:32;;;;;;;0.93;0.80;;;;;;;10.30;92.15;98864.09;10348321;28;20076;-84
2022/12/23 13:37:09;;;;;;;0.88;0.88;;;;;;;10.18;92.72;98867.28;10377187;28;20054;-83
2022/12/23 13:42:34;;;;;;;1.60;1.10;;;;;;;9.87;95.91;98868.75;10355670;28;20050;-83
2022/12/23 13:47:42;;;;;;;1.98;1.10;;;;;;;9.97;95.21;98867.41;10459674;28;20068;-83
2022/12/23 13:52:59;;;;;;;1.25;0.80;;;;;;;10.10;94.15;98863.28;10447559;28;20056;-84
2022/12/23 13:58:17;;;;;;;1.42;1.23;;;;;;;10.11;93.80;98853.63;10444750;28;20041;-85
2022/12/23 14:03:23;;;;;;;0.70;0.60;;;;;;;10.05;93.93;98852.16;10425571;28;20120;-84
2022/12/23 14:08:40;;;;;;;1.52;1.00;;;;;;;9.95;94.27;98845.63;10423313;28;20049;-84
2022/12/23 14:14:04;;;;;;;1.05;0.90;;;;;;;10.03;93.33;98835.59;10421917;28;20461;-85
2022/12/23 14:19:44;;;;;;;1.15;0.93;;;;;;;10.05;92.92;98838.19;10441448;28;20105;-83
2022/12/23 14:25:01;;;;;;;1.10;0.88;;;;;;;10.08;91.95;98838.00;10359261;28;20057;-84
2022/12/23 14:30:11;;;;;;;;;;;;;;;9.93;93.34;98841.41;10362323;28;20070;-83
2022/12/23 14:35:24;;;;;;;1.85;1.30;;;;;;;9.89;93.22;98840.69;10332438;28;19932;-82
2022/12/23 14:40:38;;;;;;;4.22;3.83;;;;;;;9.73;94.46;98848.41;10346113;28;20073;-81
2022/12/23 14:45:43;;;;;;;4.07;3.45;;;;;;;9.49;96.28;98847.81;10410351;22;20057;-72
2022/12/23 14:50:58;;;;;;;5.40;2.53;;;;;;;9.67;95.15;98826.88;10375940;28;20448;-72
2022/12/23 14:56:10;;;;;;;2.70;1.60;;;;;;;9.56;95.78;98830.88;10376030;28;20042;-73
2022/12/23 15:01:18;;;;;;;1.98;1.48;;;;;;;9.47;96.79;98833.06;10375596;28;20052;-73
2022/12/23 15:06:41;;;;;;;2.30;1.95;;;;;;;9.44;96.33;98833.22;10374875;28;20546;-73
2022/12/23 15:11:43;;;;;;;2.78;1.65;;;;;;;9.33;97.81;98829.28;10375487;28;20049;-73
2022/12/23 15:16:45;;;;;;;1.60;1.40;;;;;;;9.17;98.96;98841.41;10374880;28;20485;-73
2022/12/23 15:21:48;;;;;;;1.50;1.30;;;;;;;9.14;99.49;98838.91;10374667;28;20140;-72
2022/12/23 15:27:07;;;;;;;2.97;1.58;;;;;;;9.37;98.28;98858.00;10375152;28;20052;-72
2022/12/23 15:32:28;;;;;;;2.17;1.80;;;;;;;9.40;97.39;98845.63;10375567;28;20042;-73
2022/12/23 15:37:31;;;;;;;1.60;1.30;;;;;;;9.46;96.59;98850.56;10374993;28;20066;-73
2022/12/23 15:42:34;;;;;;;3.00;1.73;;;;;;;9.47;96.69;98822.56;10359056;28;20057;-77
2022/12/23 15:47:37;;;;;;;3.47;2.42;;;;;;;9.26;98.47;98832.28;10377422;28;20046;-77
2022/12/23 15:52:41;;;;;;;4.80;4.40;;;;;;;9.20;99.38;98822.06;10376651;28;20068;-77
2022/12/23 15:57:45;;;;;;;2.88;2.25;;;;;;;9.11;99.83;98815.47;10377256;28;20057;-77
2022/12/23 16:02:53;;;;;;;2.92;2.65;;;;;;;9.00;100.00;98818.56;10375613;28;20058;-76
2022/12/23 16:08:11;;;;;;;;;;;;;;;8.99;100.00;98819.50;10378137;28;20042;-76
2022/12/23 16:13:18;;;;;;;1.92;1.83;;;;;;;8.99;100.00;98818.66;10375894;28;19921;-76
2022/12/23 16:18:22;;;;;;;2.45;1.45;;;;;;;9.00;100.00;98821.19;10377317;28;20048;-76
2022/12/23 16:23:32;;;;;;;1.73;1.63;;;;;;;8.81;100.00;98815.09;10377118;28;20042;-75
2022/12/23 16:28:41;;;;;;;1.60;1.50;;;;;;;8.97;100.00;98807.38;10376373;28;20060;-75
2022/12/23 16:33:46;;;;;;;1.58;1.48;;;;;;;8.90;100.00;98813.78;10377226;28;20069;-76
2022/12/23 16:38:50;;;;;;;2.35;1.90;;;;;;;8.91;100.00;98816.38;10380395;28;20042;-76
2022/12/23 16:43:52;;;;;;;2.70;2.50;;;;;;;8.92;100.00;98804.97;10383536;28;20097;-76
2022/12/23 16:48:59;;;;;;;2.92;2.22;;;;;;;8.99;99.65;98802.94;10382743;28;20120;-77
2022/12/23 16:54:01;;;;;;;2.45;2.22;;;;;;;8.99;98.21;98805.56;10382867;28;20053;-76
2022/12/23 16:59:03;;;;;;;2.80;2.55;;;;;;;8.94;99.08;98794.41;10381836;28;20046;-76
2022/12/23 17:04:06;;;;;;;2.97;2.78;;;;;;;8.76;100.00;98791.66;10385047;28;20050;-76
2022/12/23 17:09:09;;;;;;;2.53;2.33;;;;;;;8.70;100.00;98797.19;10381253;28;20112;-76
2022/12/23 17:14:18;;;;;;;2.80;2.60;;;;;;;8.63;100.00;98785.25;10381222;28;20121;-76
2022/12/23 17:19:19;;;;;;;3.67;3.38;;;;;;;8.61;100.00;98771.41;10381122;28;20052;-75
2022/12/23 17:24:30;;;;;;;3.72;3.42;;;;;;;8.47;100.00;98772.00;10380591;28;20073;-75
2022/12/23 17:29:32;;;;;;;3.05;2.75;;;;;;;8.44;100.00;98759.03;10381406;28;20049;-74
2022/12/23 17:34:33;;;;;;;3.38;3.08;;;;;;;8.41;100.00;98735.63;10379268;28;20042;-73
2022/12/23 17:39:35;;;;;;;4.13;2.85;;;;;;;8.27;100.00;98738.78;10380448;28;20037;-73
2022/12/23 17:44:37;;;;;;;3.38;3.08;;;;;;;8.31;100.00;98726.41;10379842;28;21934;-74
2022/12/23 17:49:38;;;;;;;4.88;4.47;;;;;;;8.32;100.00;98715.00;10379923;28;20046;-74
2022/12/23 17:54:41;;;;;;;4.55;3.90;;;;;;;8.22;100.00;98722.44;10362641;28;20050;-74
2022/12/23 17:59:44;;;;;;;4.65;3.78;;;;;;;8.16;100.00;98714.00;10379215;28;20568;-74
2022/12/23 18:04:49;;;;;;;5.32;4.82;;;;;;;8.05;100.00;98707.44;10382303;28;20428;-74
2022/12/23 18:09:51;;;;;;;5.20;4.70;;;;;;;8.18;100.00;98704.31;10378985;28;20050;-75
2022/12/23 18:14:54;;;;;;;6.38;5.22;;;;;;;8.33;100.00;98720.22;10379759;28;20038;-73
2022/12/23 18:19:56;;;;;;;9.50;5.22;;;;;;;8.28;100.00;98726.56;10379184;28;20511;-73
2022/12/23 18:24:58;;;;;;;6.60;5.30;;;;;;;8.18;100.00;98717.38;10362134;28;20041;-73
2022/12/23 18:30:00;;;;;;;5.45;4.97;;;;;;;7.96;100.00;98713.06;10378064;28;20153;-74
2022/12/23 18:35:02;;;;;;;5.85;5.25;;;;;;;8.02;100.00;98720.66;10379613;28;20088;-74
2022/12/23 18:40:05;;;;;;;6.50;5.47;;;;;;;7.95;100.00;98707.91;10376779;28;20058;-74
2022/12/23 18:45:40;;;;;;;6.82;6.22;;;;;;;7.93;100.00;98710.59;10377844;28;20097;-74
2022/12/23 18:50:43;;;;;;;6.93;6.43;;;;;;;7.96;100.00;98710.44;10361909;28;20050;-73
2022/12/23 18:55:44;;;;;;;7.40;6.80;;;;;;;7.99;100.00;98710.31;10359604;28;20478;-74
2022/12/23 19:00:48;;;;;;;6.85;6.32;;;;;;;7.74;100.00;98712.25;10377399;28;20065;-74
2022/12/23 19:05:51;;;;;;;5.05;4.65;;;;;;;7.75;100.00;98706.97;10378712;28;20049;-74
2022/12/23 19:10:54;;;;;;;4.47;3.92;;;;;;;7.76;100.00;98710.44;10377521;28;20507;-74
2022/12/23 19:15:56;;;;;;;4.53;3.97;;;;;;;7.83;100.00;98698.78;10377454;28;20048;-74
2022/12/23 19:21:03;;;;;;;5.18;4.68;;;;;;;7.70;100.00;98681.91;10377563;28;20052;-74
2022/12/23 19:26:05;;;;;;;6.85;5.90;;;;;;;7.66;100.00;98659.41;10376460;28;20049;-74
2022/12/23 19:31:08;;;;;;;7.45;6.85;;;;;;;7.51;100.00;98653.91;10375695;28;20041;-76
2022/12/23 19:36:18;;;;;;;9.30;8.60;;;;;;;7.58;100.00;98647.53;10375909;28;20074;-76
2022/12/23 19:41:20;;;;;;;11.52;10.63;;;;;;;7.41;100.00;98631.69;10375223;28;20508;-75
2022/12/23 19:46:22;;;;;;;11.30;10.38;;;;;;;7.48;100.00;98624.41;10380256;28;20051;-73
2022/12/23 19:51:24;;;;;;;11.38;10.30;;;;;;;7.50;100.00;98602.53;10373391;28;20054;-73
2022/12/23 19:56:28;;;;;;;8.55;7.85;;;;;;;7.79;100.00;98600.44;10374477;28;20129;-72
2022/12/23 20:01:29;;;;;;;8.82;8.13;;;;;;;7.66;100.00;98586.19;10375991;28;20096;-73
2022/12/23 20:06:33;;;;;;;10.43;9.55;;;;;;;7.51;100.00;98577.25;10376150;28;20092;-74
2022/12/23 20:11:38;;;;;;;10.55;9.57;;;;;;;7.63;100.00;98558.41;10377341;28;20066;-74
2022/12/23 20:16:40;;;;;;;11.18;10.18;;;;;;;7.65;100.00;98558.34;10382185;28;20471;-73
2022/12/23 20:21:46;;;;;;;11.50;10.60;;;;;;;7.38;100.00;98549.91;10384034;28;20136;-73
2022/12/23 20:26:47;;;;;;;11.65;10.63;;;;;;;7.40;100.00;98555.94;10384595;28;20038;-73
2022/12/23 20:31:49;;;;;;;10.52;9.63;;;;;;;7.36;100.00;98555.22;10365147;28;20058;-73
2022/12/23 20:36:51;;;;;;;10.20;9.35;;;;;;;7.22;100.00;98541.88;10382736;28;20059;-73
2022/12/23 20:41:53;;;;;;;10.57;9.48;;;;;;;7.25;100.00;98545.19;10382600;28;20048;-74
2022/12/23 20:46:54;;;;;;;9.82;9.02;;;;;;;7.24;100.00;98542.66;10429925;23;20063;-73
2022/12/23 20:51:56;;;;;;;8.50;7.80;;;;;;;7.18;100.00;98540.31;10470779;28;20037;-73
2022/12/23 20:56:58;;;;;;;8.30;7.65;;;;;;;7.13;100.00;98534.41;10451447;28;20087;-72
2022/12/23 21:02:00;;;;;;;14.07;12.88;;;;;;;7.06;100.00;98542.50;10454792;28;20060;-72
2022/12/23 21:07:02;;;;;;;8.15;7.55;;;;;;;6.98;100.00;98568.09;10467681;28;20044;-73
2022/12/23 21:12:04;;;;;;;11.10;10.30;;;;;;;7.06;100.00;98562.56;10450337;28;20145;-72
2022/12/23 21:17:06;;;;;;;7.78;7.18;;;;;;;7.32;100.00;98545.81;10449394;28;20087;-73
2022/12/23 21:22:08;;;;;;;10.27;9.38;;;;;;;7.24;100.00;98535.66;10471072;28;20048;-73
2022/12/23 21:27:10;;;;;;;8.77;8.07;;;;;;;7.41;100.00;98531.50;10470518;28;20096;-73
2022/12/23 21:32:12;;;;;;;9.90;9.10;;;;;;;7.30;100.00;98516.25;10468187;28;20037;-73
2022/12/23 21:37:13;;;;;;;9.60;8.85;;;;;;;7.47;100.00;98528.59;10466321;28;20037;-73
2022/12/23 21:42:15;;;;;;;10.77;9.85;;;;;;;7.44;100.00;98521.75;10465665;28;20049;-73
2022/12/23 21:47:17;;;;;;;10.20;9.40;;;;;;;7.42;100.00;98523.56;10470927;28;20037;-73
2022/12/23 21:52:18;;;;;;;10.07;9.07;;;;;;;7.16;100.00;98514.22;10469381;28;20056;-73
2022/12/23 21:57:20;;;;;;;10.77;10.05;;;;;;;7.21;100.00;98508.81;10464439;28;20044;-74
2022/12/23 22:02:22;;;;;;;11.75;10.85;;;;;;;7.48;100.00;98499.81;10463904;28;20063;-73
2022/12/23 22:07:24;;;;;;;13.82;11.82;;;;;;;7.33;100.00;98503.06;10466248;28;20033;-73
2022/12/23 22:12:26;;;;;;;11.77;10.88;;;;;;;7.06;100.00;98505.94;10464463;28;20049;-73
2022/12/23 22:17:27;;;;;;;12.90;11.93;;;;;;;6.96;100.00;98504.63;10465660;28;20145;-72
2022/12/23 22:22:29;;;;;;;15.60;14.43;;;;;;;6.95;100.00;98509.91;10446729;28;20049;-73
2022/12/23 22:27:31;;;;;;;14.70;13.45;;;;;;;7.11;100.00;98510.97;10448082;28;20494;-73
2022/12/23 22:32:33;;;;;;;8.68;8.07;;;;;;;7.68;100.00;98517.22;10464524;28;20091;-73
2022/12/23 22:37:42;;;;;;;1.75;0.90;;;;;;;8.55;100.00;98530.72;10446696;28;20512;-73
2022/12/23 22:42:44;;;;;;;0.98;0.52;;;;;;;9.29;100.00;98539.28;10445644;28;20048;-72
2022/12/23 22:47:47;;;;;;;0.40;0.28;;;;;;;9.72;100.00;98560.72;10462473;28;20052;-72
2022/12/23 22:52:49;;;;;;;3.90;0.40;;;;;;;9.89;100.00;98556.38;10465127;28;20043;-73
2022/12/23 22:57:51;;;;;;;1.00;0.60;;;;;;;9.84;100.00;98557.47;10462226;28;20045;-74
2022/12/23 23:02:53;;;;;;;0.40;0.40;;;;;;;9.64;100.00;98588.25;10461129;28;20055;-73
2022/12/23 23:07:54;;;;;;;1.73;0.60;;;;;;;9.56;100.00;98612.25;10444788;28;20409;-73
2022/12/23 23:12:56;;;;;;;1.02;0.50;;;;;;;9.52;100.00;98608.97;10462939;28;20498;-73
2022/12/23 23:17:58;;;;;;;0.85;0.30;;;;;;;9.69;100.00;98604.63;10444084;28;20040;-73
2022/12/23 23:23:00;;;;;;;0.40;0.40;;;;;;;9.54;100.00;98619.38;10460783;28;20051;-74
2022/12/23 23:28:02;;;;;;;0.85;0.80;;;;;;;9.86;100.00;98608.06;10462149;28;20071;-72
2022/12/23 23:33:07;;;;;;;3.03;0.60;;;;;;;9.93;100.00;98611.25;10462234;28;20052;-73
2022/12/23 23:38:10;;;;;;;0.95;0.50;;;;;;;10.09;100.00;98596.41;10461147;28;20044;-73
2022/12/23 23:43:12;;;;;;;1.58;0.60;;;;;;;10.02;100.00;98607.31;10459951;28;20437;-73
2022/12/23 23:48:15;;;;;;;1.50;0.73;;;;;;;10.09;100.00;98606.03;10442163;28;20521;-73
2022/12/23 23:53:16;;;;;;;1.48;0.52;;;;;;;10.08;100.00;98599.94;10442764;28;20413;-73
2022/12/23 23:58:18;;;;;;;4.70;0.98;;;;;;;10.06;100.00;98603.59;10463138;28;20055;-73
